createdAt,value
2023-07-04T00:00:17.244Z,63.10
2023-07-04T00:03:41.916Z,63.36
2023-07-04T00:06:45.190Z,63.37
2023-07-04T00:09:48.378Z,63.31
2023-07-04T00:12:51.302Z,63.24
2023-07-04T00:15:57.280Z,63.45
2023-07-04T00:19:00.380Z,63.34
2023-07-04T00:22:05.379Z,63.37
2023-07-04T00:25:09.139Z,63.11
2023-07-04T00:28:12.056Z,63.64
2023-07-04T00:31:21.364Z,64.00
2023-07-04T00:34:25.039Z,63.93
2023-07-04T00:37:30.428Z,63.71
2023-07-04T00:40:33.448Z,63.70
2023-07-04T00:43:47.979Z,64.23
2023-07-04T00:46:57.821Z,63.80
2023-07-04T00:50:08.722Z,63.76
2023-07-04T00:53:13.924Z,63.86
2023-07-04T00:56:17.308Z,64.22
2023-07-04T00:59:21.520Z,64.33
2023-07-04T01:02:27.514Z,64.43
2023-07-04T01:05:51.663Z,64.32
2023-07-04T01:09:02.495Z,64.24
2023-07-04T01:12:06.618Z,64.47
2023-07-04T01:15:10.648Z,64.74
2023-07-04T01:18:15.456Z,64.80
2023-07-04T01:21:23.528Z,64.66
2023-07-04T01:24:40.383Z,64.58
2023-07-04T01:27:45.222Z,64.47
2023-07-04T01:30:49.023Z,64.60
2023-07-04T01:33:53.276Z,64.85
2023-07-04T01:36:56.415Z,64.75
2023-07-04T01:40:01.560Z,64.88
2023-07-04T01:43:07.171Z,64.90
2023-07-04T01:46:10.616Z,64.92
2023-07-04T01:49:14.002Z,64.68
2023-07-04T01:52:17.027Z,64.98
2023-07-04T01:55:20.227Z,64.78
2023-07-04T01:58:23.267Z,64.65
2023-07-04T02:01:26.408Z,64.59
2023-07-04T02:04:29.415Z,64.73
2023-07-04T02:07:32.750Z,64.63
2023-07-04T02:10:35.872Z,64.86
2023-07-04T02:13:39.782Z,64.67
2023-07-04T02:16:42.795Z,65.16
2023-07-04T02:19:46.039Z,65.07
2023-07-04T02:22:49.069Z,64.84
2023-07-04T02:25:54.227Z,65.01
2023-07-04T02:28:57.140Z,64.85
2023-07-04T02:32:00.115Z,64.79
2023-07-04T02:35:03.895Z,65.25
2023-07-04T02:38:07.263Z,65.37
2023-07-04T02:41:11.237Z,65.73
2023-07-04T02:44:14.324Z,65.57
2023-07-04T02:47:19.615Z,65.55
2023-07-04T02:50:22.921Z,65.71
2023-07-04T02:53:26.037Z,65.20
2023-07-04T02:56:29.739Z,65.35
2023-07-04T02:59:32.823Z,65.42
2023-07-04T03:02:36.783Z,65.28
2023-07-04T03:05:48.646Z,65.11
2023-07-04T03:08:53.084Z,65.16
2023-07-04T03:11:56.479Z,65.38
2023-07-04T03:14:59.862Z,65.56
2023-07-04T03:18:06.193Z,65.35
2023-07-04T03:21:12.226Z,65.77
2023-07-04T03:24:15.265Z,65.98
2023-07-04T03:27:18.382Z,65.56
2023-07-04T03:30:21.613Z,65.51
2023-07-04T03:33:26.644Z,65.34
2023-07-04T03:36:29.734Z,65.49
2023-07-04T03:39:32.696Z,65.75
2023-07-04T03:42:37.265Z,65.63
2023-07-04T03:45:40.287Z,65.71
2023-07-04T03:48:44.187Z,65.83
2023-07-04T03:51:48.014Z,66.11
2023-07-04T03:54:51.274Z,66.40
2023-07-04T03:57:54.243Z,66.55
2023-07-04T04:00:57.215Z,66.58
2023-07-04T04:04:00.308Z,66.80
2023-07-04T04:07:03.771Z,67.17
2023-07-04T04:10:07.458Z,67.27
2023-07-04T04:13:11.280Z,67.55
2023-07-04T04:16:14.463Z,67.74
2023-07-04T04:19:17.537Z,67.94
2023-07-04T04:22:20.550Z,67.86
2023-07-04T04:25:23.494Z,67.83
2023-07-04T04:28:26.402Z,67.60
2023-07-04T04:31:30.240Z,67.88
2023-07-04T04:34:33.287Z,67.87
2023-07-04T04:37:36.485Z,68.13
2023-07-04T04:40:39.850Z,67.97
2023-07-04T04:43:42.828Z,67.73
2023-07-04T04:46:50.085Z,67.95
2023-07-04T04:49:53.195Z,67.89
2023-07-04T04:52:57.256Z,67.34
2023-07-04T04:56:01.632Z,67.50
2023-07-04T04:59:04.544Z,67.12
2023-07-04T05:02:07.765Z,66.76
2023-07-04T05:05:10.823Z,66.70
2023-07-04T05:08:13.977Z,66.90
2023-07-04T05:11:17.947Z,66.97
2023-07-04T05:14:21.417Z,66.87
2023-07-04T05:17:25.334Z,66.79
2023-07-04T05:20:28.588Z,66.80
2023-07-04T05:23:32.699Z,66.86
2023-07-04T05:26:36.436Z,67.33
2023-07-04T05:29:40.064Z,67.54
2023-07-04T05:32:45.972Z,67.36
2023-07-04T05:35:49.412Z,67.24
2023-07-04T05:39:02.310Z,67.07
2023-07-04T05:42:08.198Z,66.67
2023-07-04T05:45:11.436Z,65.47
2023-07-04T05:48:14.511Z,65.14
2023-07-04T05:51:19.894Z,64.96
2023-07-04T05:54:22.872Z,64.90
2023-07-04T05:57:31.649Z,65.00
2023-07-04T06:00:36.145Z,64.80
2023-07-04T06:03:40.565Z,64.89
2023-07-04T06:06:49.668Z,64.90
2023-07-04T06:09:52.683Z,64.75
2023-07-04T06:12:55.658Z,64.39
2023-07-04T06:16:00.405Z,63.48
2023-07-04T06:19:03.759Z,62.98
2023-07-04T06:22:08.531Z,62.66
2023-07-04T06:25:11.433Z,62.75
2023-07-04T06:28:14.413Z,61.71
2023-07-04T06:31:18.465Z,61.53
2023-07-04T06:34:21.485Z,60.08
2023-07-04T06:37:24.451Z,60.41
2023-07-04T06:40:27.440Z,59.47
2023-07-04T06:43:32.829Z,59.02
2023-07-04T06:46:35.837Z,59.73
2023-07-04T06:49:38.842Z,58.80
2023-07-04T06:52:41.783Z,59.24
2023-07-04T06:55:44.958Z,59.61
2023-07-04T06:58:51.737Z,59.29
2023-07-04T07:01:54.985Z,58.62
2023-07-04T07:04:58.146Z,59.04
2023-07-04T07:08:01.128Z,60.05
2023-07-04T07:11:11.229Z,60.24
2023-07-04T07:14:14.382Z,60.18
2023-07-04T07:17:17.745Z,60.18
2023-07-04T07:20:20.785Z,59.80
2023-07-04T07:23:23.807Z,60.79
2023-07-04T07:26:29.542Z,61.02
2023-07-04T07:29:33.358Z,60.77
2023-07-04T07:32:36.480Z,60.14
2023-07-04T07:35:39.686Z,59.45
2023-07-04T07:38:43.136Z,59.41
2023-07-04T07:41:48.739Z,57.66
2023-07-04T07:44:51.871Z,56.62
2023-07-04T07:47:57.293Z,57.09
2023-07-04T07:51:00.556Z,56.11
2023-07-04T07:54:04.185Z,55.62
2023-07-04T07:57:07.880Z,55.30
2023-07-04T08:00:13.583Z,54.19
2023-07-04T08:03:16.720Z,54.48
2023-07-04T08:06:36.966Z,53.72
2023-07-04T08:09:40.200Z,52.51
2023-07-04T08:12:43.305Z,51.72
2023-07-04T08:15:56.130Z,53.24
2023-07-04T08:19:00.766Z,52.80
2023-07-04T08:22:03.918Z,52.58
2023-07-04T08:25:07.145Z,51.69
2023-07-04T08:28:10.243Z,52.27
2023-07-04T08:31:13.591Z,51.55
2023-07-04T08:34:16.750Z,51.03
2023-07-04T08:37:20.090Z,49.22
2023-07-04T08:40:30.528Z,48.99
2023-07-04T08:43:46.316Z,49.52
2023-07-04T08:46:54.637Z,47.84
2023-07-04T08:50:11.019Z,46.77
2023-07-04T08:53:24.017Z,48.38
2023-07-04T08:56:37.535Z,48.21
2023-07-04T08:59:48.166Z,48.46
2023-07-04T09:03:14.191Z,47.96
2023-07-04T09:06:31.880Z,45.18
2023-07-04T09:09:55.666Z,47.04
2023-07-04T09:13:01.416Z,45.82
2023-07-04T09:16:19.773Z,46.23
2023-07-04T09:19:23.082Z,45.45
2023-07-04T09:22:26.213Z,44.36
2023-07-04T09:25:29.746Z,45.59
2023-07-04T09:28:37.686Z,45.07
2023-07-04T09:31:42.558Z,45.42
2023-07-04T09:35:12.471Z,45.26
2023-07-04T09:38:15.799Z,44.99
2023-07-04T09:41:19.832Z,44.41
2023-07-04T09:44:37.428Z,44.62
2023-07-04T09:47:46.093Z,44.94
2023-07-04T09:50:49.174Z,45.02
2023-07-04T09:54:08.696Z,44.36
2023-07-04T09:57:24.113Z,43.63
2023-07-04T10:00:28.015Z,44.57
2023-07-04T10:03:31.213Z,43.75
2023-07-04T10:06:36.524Z,44.18
2023-07-04T10:09:57.511Z,43.89
2023-07-04T10:13:01.122Z,43.04
2023-07-04T10:16:19.443Z,42.96
2023-07-04T10:19:24.026Z,43.86
2023-07-04T10:22:36.442Z,44.23
2023-07-04T10:25:39.647Z,43.14
2023-07-04T10:28:44.116Z,42.98
2023-07-04T10:31:49.207Z,42.51
2023-07-04T10:34:53.388Z,42.48
2023-07-04T10:38:04.582Z,42.48
2023-07-04T10:41:36.103Z,41.41
2023-07-04T10:44:42.374Z,42.45
2023-07-04T10:47:48.904Z,42.05
2023-07-04T10:51:02.082Z,41.97
2023-07-04T10:54:09.183Z,41.47
2023-07-04T10:57:57.828Z,41.40
2023-07-04T11:01:08.477Z,42.44
2023-07-04T11:04:26.499Z,41.09
2023-07-04T11:07:30.130Z,41.60
2023-07-04T11:10:39.330Z,40.01
2023-07-04T11:13:54.016Z,40.33
2023-07-04T11:17:05.247Z,40.85
2023-07-04T11:20:16.188Z,41.73
2023-07-04T11:23:22.169Z,40.38
2023-07-04T11:26:51.308Z,40.78
2023-07-04T11:29:59.820Z,42.28
2023-07-04T11:33:03.420Z,42.37
2023-07-04T11:36:15.591Z,40.90
2023-07-04T11:39:38.629Z,38.68
2023-07-04T11:42:45.717Z,39.83
2023-07-04T11:45:50.232Z,39.60
2023-07-04T11:48:55.555Z,39.68
2023-07-04T11:52:20.651Z,40.28
2023-07-04T11:55:33.706Z,39.44
2023-07-04T11:58:37.038Z,40.11
2023-07-04T12:02:04.864Z,39.76
2023-07-04T12:05:32.523Z,40.19
2023-07-04T12:08:51.609Z,40.19
2023-07-04T12:11:57.481Z,39.25
2023-07-04T12:19:04.600Z,40.15
2023-07-04T12:22:06.860Z,38.52
2023-07-04T12:25:19.544Z,39.43
2023-07-04T12:28:27.504Z,40.49
2023-07-04T12:35:10.856Z,39.60
2023-07-04T12:37:58.859Z,39.22
2023-07-04T12:41:04.776Z,38.58
2023-07-04T12:47:26.241Z,38.88
2023-07-04T12:50:31.501Z,39.45
2023-07-04T12:53:35.197Z,40.19
2023-07-04T12:56:42.415Z,39.49
2023-07-04T12:59:49.443Z,40.24
2023-07-04T13:02:52.746Z,40.35
2023-07-04T13:05:56.262Z,41.86
2023-07-04T13:09:00.430Z,42.25
2023-07-04T13:12:03.547Z,43.00
2023-07-04T13:15:12.832Z,43.68
2023-07-04T13:18:15.876Z,43.65
2023-07-04T13:21:27.454Z,44.52
2023-07-04T13:27:41.549Z,44.21
2023-07-04T13:32:58.853Z,45.40
2023-07-04T13:34:10.440Z,46.04
2023-07-04T13:37:13.525Z,48.56
2023-07-04T13:40:16.823Z,49.19
2023-07-04T13:46:25.590Z,48.19
2023-07-04T13:49:28.584Z,47.53
2023-07-04T13:52:33.702Z,46.67
2023-07-04T13:55:38.389Z,47.76
2023-07-04T13:58:41.694Z,46.41
2023-07-04T14:07:56.391Z,46.47
2023-07-04T14:11:08.848Z,46.07
2023-07-04T14:16:35.746Z,44.58
2023-07-04T14:18:31.874Z,44.97
2023-07-04T14:21:00.826Z,46.05
2023-07-04T14:24:07.163Z,46.37
2023-07-04T14:27:10.562Z,45.62
2023-07-04T14:30:14.116Z,44.19
2023-07-04T14:33:17.239Z,43.83
2023-07-04T14:36:20.392Z,45.03
2023-07-04T14:39:26.184Z,44.18
2023-07-04T14:42:31.746Z,44.48
2023-07-04T14:45:35.423Z,44.74
2023-07-04T14:48:39.308Z,45.58
2023-07-04T14:51:45.700Z,44.22
2023-07-04T14:54:48.882Z,44.16
2023-07-04T14:57:51.835Z,44.06
2023-07-04T15:01:01.407Z,44.70
2023-07-04T15:04:05.459Z,45.36
2023-07-04T15:07:08.487Z,45.22
2023-07-04T15:10:11.543Z,44.22
2023-07-04T15:13:14.698Z,44.16
2023-07-04T15:16:18.817Z,44.07
2023-07-04T15:19:25.996Z,43.91
2023-07-04T15:22:29.046Z,43.74
2023-07-04T15:25:32.100Z,43.42
2023-07-04T15:28:38.649Z,43.91
2023-07-04T15:31:41.739Z,44.03
2023-07-04T15:34:44.927Z,44.60
2023-07-04T15:37:48.031Z,44.78
2023-07-04T15:40:53.867Z,44.81
2023-07-04T15:43:57.000Z,44.97
2023-07-04T15:47:00.453Z,45.00
2023-07-04T15:50:03.656Z,45.26
2023-07-04T15:53:06.656Z,45.14
2023-07-04T15:56:12.949Z,45.17
2023-07-04T15:59:16.600Z,45.74
2023-07-04T16:02:19.654Z,46.29
2023-07-04T16:05:22.950Z,46.42
2023-07-04T16:08:27.540Z,46.65
2023-07-04T16:11:30.582Z,46.27
2023-07-04T16:14:33.524Z,46.42
2023-07-04T16:17:37.772Z,46.88
2023-07-04T16:20:45.639Z,46.75
2023-07-04T16:23:48.685Z,46.78
2023-07-04T16:26:51.925Z,46.95
2023-07-04T16:29:55.063Z,47.50
2023-07-04T16:32:58.072Z,47.63
2023-07-04T16:36:02.541Z,47.83
2023-07-04T16:39:05.512Z,48.41
2023-07-04T16:42:08.498Z,48.69
2023-07-04T16:45:11.526Z,49.43
2023-07-04T16:48:14.867Z,49.66
2023-07-04T16:51:17.805Z,50.36
2023-07-04T16:54:20.755Z,50.51
2023-07-04T16:57:23.744Z,50.29
2023-07-04T17:00:26.829Z,50.01
2023-07-04T17:03:31.505Z,49.48
2023-07-04T17:06:34.535Z,49.71
2023-07-04T17:09:37.516Z,50.31
2023-07-04T17:12:40.448Z,50.58
2023-07-04T17:15:43.500Z,51.06
2023-07-04T17:18:46.532Z,50.81
2023-07-04T17:21:49.891Z,51.09
2023-07-04T17:25:06.944Z,52.24
2023-07-04T17:28:16.403Z,52.36
2023-07-04T17:31:20.050Z,51.20
2023-07-04T17:34:24.495Z,52.04
2023-07-04T17:37:28.391Z,52.30
2023-07-04T17:40:32.432Z,53.59
2023-07-04T17:43:36.748Z,54.21
2023-07-04T17:46:40.023Z,53.82
2023-07-04T17:49:43.066Z,54.46
2023-07-04T17:52:47.242Z,55.17
2023-07-04T17:55:50.553Z,54.26
2023-07-04T17:58:54.946Z,55.65
2023-07-04T18:01:57.939Z,55.76
2023-07-04T18:05:00.921Z,56.50
2023-07-04T18:08:06.572Z,56.43
2023-07-04T18:11:22.752Z,56.54
2023-07-04T18:14:27.273Z,56.81
2023-07-04T18:17:31.291Z,57.96
2023-07-04T18:20:34.437Z,57.52
2023-07-04T18:23:37.710Z,58.25
2023-07-04T18:26:40.746Z,57.73
2023-07-04T18:29:43.708Z,57.79
2023-07-04T18:32:46.711Z,57.62
2023-07-04T18:35:50.381Z,57.58
2023-07-04T18:38:53.670Z,57.83
2023-07-04T18:41:56.703Z,58.24
2023-07-04T18:44:59.595Z,58.95
2023-07-04T18:48:02.696Z,58.67
2023-07-04T18:51:20.534Z,58.64
2023-07-04T18:57:29.306Z,59.14
2023-07-04T19:00:32.288Z,59.64
2023-07-04T19:03:35.754Z,59.53
2023-07-04T19:06:41.067Z,59.15
2023-07-04T19:09:44.242Z,60.30
2023-07-04T19:12:47.276Z,59.87
2023-07-04T19:15:59.749Z,60.17
2023-07-04T19:19:02.733Z,60.62
2023-07-04T19:22:08.444Z,60.74
2023-07-04T19:25:11.539Z,60.70
2023-07-04T19:28:17.125Z,60.86
2023-07-04T19:31:20.384Z,61.30
2023-07-04T19:34:24.956Z,61.28
2023-07-04T19:37:27.949Z,61.12
2023-07-04T19:40:30.872Z,61.15
2023-07-04T19:43:33.892Z,61.31
2023-07-04T19:46:37.086Z,61.79
2023-07-04T19:49:40.635Z,61.90
2023-07-04T19:52:43.727Z,62.16
2023-07-04T19:55:46.607Z,62.78
2023-07-04T19:58:51.194Z,62.77
2023-07-04T20:01:54.221Z,63.32
2023-07-04T20:04:57.324Z,63.35
2023-07-04T20:08:01.357Z,63.52
2023-07-04T20:11:04.691Z,63.45
2023-07-04T20:14:08.593Z,63.24
2023-07-04T20:17:11.557Z,63.15
2023-07-04T20:20:14.622Z,63.41
2023-07-04T20:23:17.789Z,63.52
2023-07-04T20:26:20.970Z,63.53
2023-07-04T20:29:24.102Z,63.54
2023-07-04T20:32:27.122Z,63.96
2023-07-04T20:35:30.873Z,64.54
2023-07-04T20:38:36.225Z,64.61
2023-07-04T20:41:39.142Z,64.59
2023-07-04T20:44:42.171Z,64.59
2023-07-04T20:47:45.279Z,64.77
2023-07-04T20:50:50.114Z,64.91
2023-07-04T20:53:53.385Z,64.81
2023-07-04T20:56:56.369Z,65.27
2023-07-04T20:59:59.368Z,65.41
2023-07-04T21:03:02.338Z,65.37
2023-07-04T21:06:06.601Z,65.46
2023-07-04T21:09:20.077Z,65.51
2023-07-04T21:12:23.264Z,65.53
2023-07-04T21:15:28.802Z,65.65
2023-07-04T21:18:33.662Z,65.79
2023-07-04T21:21:37.164Z,65.55
2023-07-04T21:24:40.076Z,65.42
2023-07-04T21:27:43.809Z,65.33
2023-07-04T21:30:49.274Z,65.34
2023-07-04T21:33:55.559Z,65.30
2023-07-04T21:36:58.535Z,65.56
2023-07-04T21:40:01.678Z,65.52
2023-07-04T21:43:06.241Z,65.73
2023-07-04T21:46:10.832Z,65.88
2023-07-04T21:49:13.774Z,66.12
2023-07-04T21:52:17.369Z,66.10
2023-07-04T21:55:20.373Z,66.05
2023-07-04T21:58:24.261Z,65.96
2023-07-04T22:01:27.338Z,66.00
2023-07-04T22:04:30.798Z,66.22
2023-07-04T22:07:33.839Z,66.09
2023-07-04T22:10:36.838Z,65.69
2023-07-04T22:13:43.446Z,65.74
2023-07-04T22:16:46.482Z,65.74
2023-07-04T22:19:49.609Z,65.72
2023-07-04T22:22:52.689Z,66.13
2023-07-04T22:25:56.446Z,66.02
2023-07-04T22:28:59.701Z,65.98
2023-07-04T22:32:03.120Z,66.03
2023-07-04T22:35:07.543Z,66.39
2023-07-04T22:38:10.531Z,66.42
2023-07-04T22:41:13.478Z,66.54
2023-07-04T22:44:17.271Z,66.18
2023-07-04T22:47:20.246Z,66.01
2023-07-04T22:50:23.287Z,66.44
2023-07-04T22:53:26.696Z,66.29
2023-07-04T22:56:29.686Z,66.36
2023-07-04T22:59:32.587Z,66.64
2023-07-04T23:02:35.836Z,66.79
2023-07-04T23:05:42.155Z,67.21
2023-07-04T23:08:45.298Z,66.96
2023-07-04T23:11:48.227Z,66.87
2023-07-04T23:14:51.184Z,66.81
2023-07-04T23:17:55.503Z,66.55
2023-07-04T23:20:58.562Z,66.85
2023-07-04T23:24:02.084Z,67.10
2023-07-04T23:27:05.683Z,66.89
2023-07-04T23:30:09.083Z,67.04
2023-07-04T23:33:11.984Z,67.27
2023-07-04T23:36:17.938Z,67.41
2023-07-04T23:39:20.866Z,67.45
2023-07-04T23:42:23.964Z,67.60
2023-07-04T23:45:27.073Z,67.44
2023-07-04T23:48:30.230Z,67.31
2023-07-04T23:51:33.143Z,67.51
2023-07-04T23:54:36.090Z,67.47
2023-07-04T23:57:39.012Z,67.44
